sensor_id;sensor_type;location;lat;lon;timestamp;P1;durP1;ratioP1;P2;durP2;ratioP2
4353;SDS011;11018;51.258;6.806;2024-02-21T00:00:04;33.50;;;12.48;;
4353;SDS011;11018;51.258;6.806;2024-02-21T00:02:30;36.13;;;13.70;;
4353;SDS011;11018;51.258;6.806;2024-02-21T00:04:56;34.17;;;12.67;;
4353;SDS011;11018;51.258;6.806;2024-02-21T00:07:21;35.97;;;13.80;;
4353;SDS011;11018;51.258;6.806;2024-02-21T00:09:47;32.75;;;12.43;;
4353;SDS011;11018;51.258;6.806;2024-02-21T00:12:13;31.47;;;12.77;;
4353;SDS011;11018;51.258;6.806;2024-02-21T00:14:41;29.75;;;12.20;;
4353;SDS011;11018;51.258;6.806;2024-02-21T00:17:07;30.80;;;13.03;;
4353;SDS011;11018;51.258;6.806;2024-02-21T00:19:33;34.77;;;12.97;;
4353;SDS011;11018;51.258;6.806;2024-02-21T00:21:59;33.22;;;12.60;;
4353;SDS011;11018;51.258;6.806;2024-02-21T00:24:24;37.50;;;12.83;;
4353;SDS011;11018;51.258;6.806;2024-02-21T00:26:50;30.97;;;12.70;;
4353;SDS011;11018;51.258;6.806;2024-02-21T00:29:15;34.67;;;13.03;;
4353;SDS011;11018;51.258;6.806;2024-02-21T00:31:41;34.30;;;12.50;;
4353;SDS011;11018;51.258;6.806;2024-02-21T00:34:06;36.08;;;12.70;;
4353;SDS011;11018;51.258;6.806;2024-02-21T00:36:32;37.53;;;12.65;;
4353;SDS011;11018;51.258;6.806;2024-02-21T00:38:58;33.40;;;13.07;;
4353;SDS011;11018;51.258;6.806;2024-02-21T00:41:23;41.47;;;13.35;;
4353;SDS011;11018;51.258;6.806;2024-02-21T00:43:49;26.50;;;12.30;;
4353;SDS011;11018;51.258;6.806;2024-02-21T00:46:15;35.00;;;13.55;;
4353;SDS011;11018;51.258;6.806;2024-02-21T00:48:40;31.20;;;12.35;;
4353;SDS011;11018;51.258;6.806;2024-02-21T00:51:06;30.83;;;12.07;;
4353;SDS011;11018;51.258;6.806;2024-02-21T00:53:31;33.47;;;12.43;;
4353;SDS011;11018;51.258;6.806;2024-02-21T00:55:57;33.83;;;13.00;;
4353;SDS011;11018;51.258;6.806;2024-02-21T00:58:23;38.43;;;13.60;;
4353;SDS011;11018;51.258;6.806;2024-02-21T01:00:49;35.07;;;13.50;;
4353;SDS011;11018;51.258;6.806;2024-02-21T01:03:14;32.27;;;12.70;;
4353;SDS011;11018;51.258;6.806;2024-02-21T01:05:40;37.07;;;13.77;;
4353;SDS011;11018;51.258;6.806;2024-02-21T01:08:05;32.63;;;12.53;;
4353;SDS011;11018;51.258;6.806;2024-02-21T01:10:31;35.85;;;13.38;;
4353;SDS011;11018;51.258;6.806;2024-02-21T01:12:57;36.15;;;13.68;;
4353;SDS011;11018;51.258;6.806;2024-02-21T01:15:22;29.20;;;13.00;;
4353;SDS011;11018;51.258;6.806;2024-02-21T01:17:48;37.40;;;13.03;;
4353;SDS011;11018;51.258;6.806;2024-02-21T01:20:15;32.80;;;13.13;;
4353;SDS011;11018;51.258;6.806;2024-02-21T01:22:42;30.73;;;12.15;;
4353;SDS011;11018;51.258;6.806;2024-02-21T01:25:07;38.13;;;13.00;;
4353;SDS011;11018;51.258;6.806;2024-02-21T01:27:33;32.70;;;13.20;;
4353;SDS011;11018;51.258;6.806;2024-02-21T01:29:59;30.23;;;11.80;;
4353;SDS011;11018;51.258;6.806;2024-02-21T01:32:24;38.00;;;13.40;;
4353;SDS011;11018;51.258;6.806;2024-02-21T01:34:50;33.50;;;12.63;;
4353;SDS011;11018;51.258;6.806;2024-02-21T01:37:16;32.00;;;12.32;;
4353;SDS011;11018;51.258;6.806;2024-02-21T01:39:41;42.70;;;12.47;;
4353;SDS011;11018;51.258;6.806;2024-02-21T01:42:07;33.67;;;12.53;;
4353;SDS011;11018;51.258;6.806;2024-02-21T01:44:34;36.67;;;12.33;;
4353;SDS011;11018;51.258;6.806;2024-02-21T01:46:59;34.87;;;12.50;;
4353;SDS011;11018;51.258;6.806;2024-02-21T01:49:25;27.90;;;11.88;;
4353;SDS011;11018;51.258;6.806;2024-02-21T01:51:51;30.98;;;11.98;;
4353;SDS011;11018;51.258;6.806;2024-02-21T01:54:18;28.85;;;11.98;;
4353;SDS011;11018;51.258;6.806;2024-02-21T01:56:44;31.70;;;13.00;;
4353;SDS011;11018;51.258;6.806;2024-02-21T01:59:11;43.60;;;13.05;;
4353;SDS011;11018;51.258;6.806;2024-02-21T02:01:38;31.52;;;11.98;;
4353;SDS011;11018;51.258;6.806;2024-02-21T02:04:04;29.20;;;11.30;;
4353;SDS011;11018;51.258;6.806;2024-02-21T02:06:31;33.85;;;12.40;;
4353;SDS011;11018;51.258;6.806;2024-02-21T02:08:56;34.80;;;12.43;;
4353;SDS011;11018;51.258;6.806;2024-02-21T02:11:22;32.60;;;12.30;;
4353;SDS011;11018;51.258;6.806;2024-02-21T02:13:48;27.27;;;11.70;;
4353;SDS011;11018;51.258;6.806;2024-02-21T02:16:13;27.40;;;11.50;;
4353;SDS011;11018;51.258;6.806;2024-02-21T02:18:39;33.97;;;12.30;;
4353;SDS011;11018;51.258;6.806;2024-02-21T02:21:05;29.42;;;12.00;;
4353;SDS011;11018;51.258;6.806;2024-02-21T02:23:47;25.85;;;11.43;;
4353;SDS011;11018;51.258;6.806;2024-02-21T02:26:13;28.60;;;11.50;;
4353;SDS011;11018;51.258;6.806;2024-02-21T02:28:39;36.80;;;11.20;;
4353;SDS011;11018;51.258;6.806;2024-02-21T02:31:05;30.30;;;11.10;;
4353;SDS011;11018;51.258;6.806;2024-02-21T02:33:30;28.40;;;11.05;;
4353;SDS011;11018;51.258;6.806;2024-02-21T02:35:56;27.87;;;10.97;;
4353;SDS011;11018;51.258;6.806;2024-02-21T02:38:23;31.50;;;10.85;;
4353;SDS011;11018;51.258;6.806;2024-02-21T02:40:49;30.10;;;11.10;;
4353;SDS011;11018;51.258;6.806;2024-02-21T02:43:14;27.45;;;11.25;;
4353;SDS011;11018;51.258;6.806;2024-02-21T02:45:40;35.42;;;11.60;;
4353;SDS011;11018;51.258;6.806;2024-02-21T02:48:06;22.75;;;10.68;;
4353;SDS011;11018;51.258;6.806;2024-02-21T02:50:31;27.08;;;10.88;;
4353;SDS011;11018;51.258;6.806;2024-02-21T02:52:57;36.40;;;11.85;;
4353;SDS011;11018;51.258;6.806;2024-02-21T02:55:23;33.38;;;11.63;;
4353;SDS011;11018;51.258;6.806;2024-02-21T02:57:48;31.90;;;10.90;;
4353;SDS011;11018;51.258;6.806;2024-02-21T03:00:14;25.67;;;11.32;;
4353;SDS011;11018;51.258;6.806;2024-02-21T03:02:42;35.85;;;12.07;;
4353;SDS011;11018;51.258;6.806;2024-02-21T03:05:26;27.25;;;10.88;;
4353;SDS011;11018;51.258;6.806;2024-02-21T03:07:51;27.27;;;11.82;;
4353;SDS011;11018;51.258;6.806;2024-02-21T03:10:17;27.25;;;10.25;;
4353;SDS011;11018;51.258;6.806;2024-02-21T03:12:42;24.77;;;10.77;;
4353;SDS011;11018;51.258;6.806;2024-02-21T03:15:08;27.00;;;10.57;;
4353;SDS011;11018;51.258;6.806;2024-02-21T03:17:34;28.23;;;11.40;;
4353;SDS011;11018;51.258;6.806;2024-02-21T03:20:01;33.33;;;10.80;;
4353;SDS011;11018;51.258;6.806;2024-02-21T03:22:30;29.92;;;11.50;;
4353;SDS011;11018;51.258;6.806;2024-02-21T03:24:56;32.58;;;10.80;;
4353;SDS011;11018;51.258;6.806;2024-02-21T03:27:21;28.30;;;10.87;;
4353;SDS011;11018;51.258;6.806;2024-02-21T03:29:47;22.70;;;10.67;;
4353;SDS011;11018;51.258;6.806;2024-02-21T03:32:12;31.27;;;10.83;;
4353;SDS011;11018;51.258;6.806;2024-02-21T03:34:38;29.07;;;10.30;;
4353;SDS011;11018;51.258;6.806;2024-02-21T03:37:03;24.57;;;9.87;;
4353;SDS011;11018;51.258;6.806;2024-02-21T03:39:32;23.13;;;9.93;;
4353;SDS011;11018;51.258;6.806;2024-02-21T03:41:58;29.23;;;9.60;;
4353;SDS011;11018;51.258;6.806;2024-02-21T03:44:26;28.33;;;10.45;;
4353;SDS011;11018;51.258;6.806;2024-02-21T03:46:52;21.65;;;10.20;;
4353;SDS011;11018;51.258;6.806;2024-02-21T03:49:18;23.50;;;10.10;;
4353;SDS011;11018;51.258;6.806;2024-02-21T03:51:43;22.13;;;10.20;;
4353;SDS011;11018;51.258;6.806;2024-02-21T03:54:09;27.08;;;10.43;;
4353;SDS011;11018;51.258;6.806;2024-02-21T03:56:37;23.87;;;9.97;;
4353;SDS011;11018;51.258;6.806;2024-02-21T03:59:04;21.40;;;9.70;;
4353;SDS011;11018;51.258;6.806;2024-02-21T04:01:31;22.55;;;10.07;;
4353;SDS011;11018;51.258;6.806;2024-02-21T04:03:57;30.73;;;9.97;;
4353;SDS011;11018;51.258;6.806;2024-02-21T04:06:22;21.43;;;9.40;;
4353;SDS011;11018;51.258;6.806;2024-02-21T04:08:48;26.77;;;9.75;;
4353;SDS011;11018;51.258;6.806;2024-02-21T04:11:13;24.48;;;9.85;;
4353;SDS011;11018;51.258;6.806;2024-02-21T04:13:39;24.35;;;9.70;;
4353;SDS011;11018;51.258;6.806;2024-02-21T04:16:04;20.90;;;8.90;;
4353;SDS011;11018;51.258;6.806;2024-02-21T04:18:31;31.95;;;10.48;;
4353;SDS011;11018;51.258;6.806;2024-02-21T04:20:56;26.85;;;8.95;;
4353;SDS011;11018;51.258;6.806;2024-02-21T04:23:22;28.35;;;9.48;;
4353;SDS011;11018;51.258;6.806;2024-02-21T04:25:47;23.63;;;9.65;;
4353;SDS011;11018;51.258;6.806;2024-02-21T04:28:13;25.00;;;9.73;;
4353;SDS011;11018;51.258;6.806;2024-02-21T04:30:38;24.23;;;9.60;;
4353;SDS011;11018;51.258;6.806;2024-02-21T04:33:04;25.30;;;9.00;;
4353;SDS011;11018;51.258;6.806;2024-02-21T04:35:29;22.03;;;9.13;;
4353;SDS011;11018;51.258;6.806;2024-02-21T04:37:55;24.77;;;9.30;;
4353;SDS011;11018;51.258;6.806;2024-02-21T04:40:20;28.45;;;9.85;;
4353;SDS011;11018;51.258;6.806;2024-02-21T04:42:46;27.93;;;9.00;;
4353;SDS011;11018;51.258;6.806;2024-02-21T04:45:11;23.97;;;8.90;;
4353;SDS011;11018;51.258;6.806;2024-02-21T04:47:37;30.53;;;9.00;;
4353;SDS011;11018;51.258;6.806;2024-02-21T04:50:03;18.53;;;8.00;;
4353;SDS011;11018;51.258;6.806;2024-02-21T04:52:28;23.47;;;9.10;;
4353;SDS011;11018;51.258;6.806;2024-02-21T04:54:54;23.08;;;8.38;;
4353;SDS011;11018;51.258;6.806;2024-02-21T04:57:20;22.92;;;8.93;;
4353;SDS011;11018;51.258;6.806;2024-02-21T04:59:46;31.40;;;9.10;;
4353;SDS011;11018;51.258;6.806;2024-02-21T05:02:12;18.93;;;8.10;;
4353;SDS011;11018;51.258;6.806;2024-02-21T05:04:38;28.10;;;8.43;;
4353;SDS011;11018;51.258;6.806;2024-02-21T05:07:06;29.85;;;8.90;;
4353;SDS011;11018;51.258;6.806;2024-02-21T05:09:31;19.50;;;8.80;;
4353;SDS011;11018;51.258;6.806;2024-02-21T05:11:57;24.55;;;9.20;;
4353;SDS011;11018;51.258;6.806;2024-02-21T05:14:26;23.25;;;8.90;;
4353;SDS011;11018;51.258;6.806;2024-02-21T05:16:54;21.08;;;8.18;;
4353;SDS011;11018;51.258;6.806;2024-02-21T05:19:20;22.65;;;8.85;;
4353;SDS011;11018;51.258;6.806;2024-02-21T05:21:46;21.90;;;8.20;;
4353;SDS011;11018;51.258;6.806;2024-02-21T05:24:11;20.48;;;8.50;;
4353;SDS011;11018;51.258;6.806;2024-02-21T05:26:37;25.33;;;8.52;;
4353;SDS011;11018;51.258;6.806;2024-02-21T05:29:03;23.00;;;8.77;;
4353;SDS011;11018;51.258;6.806;2024-02-21T05:34:16;17.85;;;8.30;;
4353;SDS011;11018;51.258;6.806;2024-02-21T05:36:42;21.98;;;8.43;;
4353;SDS011;11018;51.258;6.806;2024-02-21T05:39:07;19.05;;;7.57;;
4353;SDS011;11018;51.258;6.806;2024-02-21T05:41:33;23.42;;;8.20;;
4353;SDS011;11018;51.258;6.806;2024-02-21T05:43:58;23.10;;;8.23;;
4353;SDS011;11018;51.258;6.806;2024-02-21T05:46:24;27.90;;;8.87;;
4353;SDS011;11018;51.258;6.806;2024-02-21T05:48:49;19.83;;;8.67;;
4353;SDS011;11018;51.258;6.806;2024-02-21T05:51:15;24.73;;;8.83;;
4353;SDS011;11018;51.258;6.806;2024-02-21T05:53:40;24.77;;;8.10;;
4353;SDS011;11018;51.258;6.806;2024-02-21T05:56:10;22.38;;;8.40;;
4353;SDS011;11018;51.258;6.806;2024-02-21T05:58:36;20.95;;;7.35;;
4353;SDS011;11018;51.258;6.806;2024-02-21T06:01:02;21.60;;;8.10;;
4353;SDS011;11018;51.258;6.806;2024-02-21T06:03:28;17.30;;;7.45;;
4353;SDS011;11018;51.258;6.806;2024-02-21T06:05:54;20.55;;;7.70;;
4353;SDS011;11018;51.258;6.806;2024-02-21T06:08:20;25.17;;;8.00;;
4353;SDS011;11018;51.258;6.806;2024-02-21T06:10:45;25.37;;;8.50;;
4353;SDS011;11018;51.258;6.806;2024-02-21T06:13:12;23.92;;;8.13;;
4353;SDS011;11018;51.258;6.806;2024-02-21T06:15:37;21.52;;;7.13;;
4353;SDS011;11018;51.258;6.806;2024-02-21T06:18:03;16.40;;;6.85;;
4353;SDS011;11018;51.258;6.806;2024-02-21T06:20:29;22.80;;;7.80;;
4353;SDS011;11018;51.258;6.806;2024-02-21T06:22:54;15.82;;;7.03;;
4353;SDS011;11018;51.258;6.806;2024-02-21T06:25:20;20.27;;;7.83;;
4353;SDS011;11018;51.258;6.806;2024-02-21T06:27:45;18.90;;;8.00;;
4353;SDS011;11018;51.258;6.806;2024-02-21T06:30:11;23.03;;;8.30;;
4353;SDS011;11018;51.258;6.806;2024-02-21T06:32:37;24.77;;;7.60;;
4353;SDS011;11018;51.258;6.806;2024-02-21T06:35:03;19.92;;;7.28;;
4353;SDS011;11018;51.258;6.806;2024-02-21T06:37:29;20.43;;;8.10;;
4353;SDS011;11018;51.258;6.806;2024-02-21T06:39:55;19.48;;;7.95;;
4353;SDS011;11018;51.258;6.806;2024-02-21T06:42:20;21.13;;;7.23;;
4353;SDS011;11018;51.258;6.806;2024-02-21T06:44:46;21.50;;;7.90;;
4353;SDS011;11018;51.258;6.806;2024-02-21T06:47:12;22.23;;;7.25;;
4353;SDS011;11018;51.258;6.806;2024-02-21T06:49:37;18.53;;;7.67;;
4353;SDS011;11018;51.258;6.806;2024-02-21T06:52:04;23.63;;;7.90;;
4353;SDS011;11018;51.258;6.806;2024-02-21T06:54:30;17.30;;;7.30;;
4353;SDS011;11018;51.258;6.806;2024-02-21T06:56:55;18.95;;;7.32;;
4353;SDS011;11018;51.258;6.806;2024-02-21T06:59:21;15.77;;;6.73;;
4353;SDS011;11018;51.258;6.806;2024-02-21T07:01:47;20.90;;;7.30;;
4353;SDS011;11018;51.258;6.806;2024-02-21T07:04:14;22.75;;;7.38;;
4353;SDS011;11018;51.258;6.806;2024-02-21T07:06:39;17.25;;;7.28;;
4353;SDS011;11018;51.258;6.806;2024-02-21T07:09:05;17.05;;;7.28;;
4353;SDS011;11018;51.258;6.806;2024-02-21T07:11:31;20.60;;;7.40;;
4353;SDS011;11018;51.258;6.806;2024-02-21T07:13:56;20.17;;;7.63;;
4353;SDS011;11018;51.258;6.806;2024-02-21T07:16:22;20.20;;;7.17;;
4353;SDS011;11018;51.258;6.806;2024-02-21T07:18:47;15.53;;;7.23;;
4353;SDS011;11018;51.258;6.806;2024-02-21T07:21:13;18.45;;;7.07;;
4353;SDS011;11018;51.258;6.806;2024-02-21T07:23:42;17.48;;;6.50;;
4353;SDS011;11018;51.258;6.806;2024-02-21T07:26:08;17.50;;;6.80;;
4353;SDS011;11018;51.258;6.806;2024-02-21T07:28:34;17.50;;;6.25;;
4353;SDS011;11018;51.258;6.806;2024-02-21T07:30:59;13.48;;;6.60;;
4353;SDS011;11018;51.258;6.806;2024-02-21T07:33:25;17.58;;;5.82;;
4353;SDS011;11018;51.258;6.806;2024-02-21T07:35:51;16.95;;;6.35;;
4353;SDS011;11018;51.258;6.806;2024-02-21T07:38:16;12.18;;;5.68;;
4353;SDS011;11018;51.258;6.806;2024-02-21T07:40:46;17.30;;;6.27;;
4353;SDS011;11018;51.258;6.806;2024-02-21T07:43:11;17.77;;;6.60;;
4353;SDS011;11018;51.258;6.806;2024-02-21T07:45:37;14.93;;;5.57;;
4353;SDS011;11018;51.258;6.806;2024-02-21T07:48:04;15.37;;;6.07;;
4353;SDS011;11018;51.258;6.806;2024-02-21T07:50:30;22.13;;;6.60;;
4353;SDS011;11018;51.258;6.806;2024-02-21T07:52:56;18.53;;;6.67;;
4353;SDS011;11018;51.258;6.806;2024-02-21T07:55:22;17.08;;;5.57;;
4353;SDS011;11018;51.258;6.806;2024-02-21T07:57:47;15.02;;;5.82;;
4353;SDS011;11018;51.258;6.806;2024-02-21T08:00:13;17.85;;;6.28;;
4353;SDS011;11018;51.258;6.806;2024-02-21T08:02:44;15.57;;;6.22;;
4353;SDS011;11018;51.258;6.806;2024-02-21T08:05:13;13.75;;;5.55;;
4353;SDS011;11018;51.258;6.806;2024-02-21T08:07:39;19.63;;;6.73;;
4353;SDS011;11018;51.258;6.806;2024-02-21T08:10:05;14.18;;;5.97;;
4353;SDS011;11018;51.258;6.806;2024-02-21T08:12:33;22.20;;;6.57;;
4353;SDS011;11018;51.258;6.806;2024-02-21T08:14:58;13.10;;;5.23;;
4353;SDS011;11018;51.258;6.806;2024-02-21T08:17:24;16.00;;;5.57;;
4353;SDS011;11018;51.258;6.806;2024-02-21T08:19:50;14.97;;;5.53;;
4353;SDS011;11018;51.258;6.806;2024-02-21T08:22:15;16.10;;;6.00;;
4353;SDS011;11018;51.258;6.806;2024-02-21T08:24:41;14.60;;;5.07;;
4353;SDS011;11018;51.258;6.806;2024-02-21T08:27:07;10.90;;;5.33;;
4353;SDS011;11018;51.258;6.806;2024-02-21T08:29:32;21.53;;;5.43;;
4353;SDS011;11018;51.258;6.806;2024-02-21T08:31:58;16.60;;;6.00;;
4353;SDS011;11018;51.258;6.806;2024-02-21T08:34:23;21.03;;;6.20;;
4353;SDS011;11018;51.258;6.806;2024-02-21T08:36:49;20.90;;;7.23;;
4353;SDS011;11018;51.258;6.806;2024-02-21T08:39:15;20.45;;;6.85;;
4353;SDS011;11018;51.258;6.806;2024-02-21T08:41:43;17.88;;;6.47;;
4353;SDS011;11018;51.258;6.806;2024-02-21T08:44:09;19.25;;;6.68;;
4353;SDS011;11018;51.258;6.806;2024-02-21T08:46:34;15.35;;;6.10;;
4353;SDS011;11018;51.258;6.806;2024-02-21T08:49:03;22.52;;;7.15;;
4353;SDS011;11018;51.258;6.806;2024-02-21T08:51:28;20.53;;;7.27;;
4353;SDS011;11018;51.258;6.806;2024-02-21T08:53:54;19.70;;;6.47;;
4353;SDS011;11018;51.258;6.806;2024-02-21T08:56:20;18.40;;;6.30;;
4353;SDS011;11018;51.258;6.806;2024-02-21T08:58:45;21.43;;;6.60;;
4353;SDS011;11018;51.258;6.806;2024-02-21T09:01:11;16.17;;;6.43;;
4353;SDS011;11018;51.258;6.806;2024-02-21T09:03:37;18.63;;;6.60;;
4353;SDS011;11018;51.258;6.806;2024-02-21T09:06:04;23.55;;;7.03;;
4353;SDS011;11018;51.258;6.806;2024-02-21T09:08:31;21.88;;;6.20;;
4353;SDS011;11018;51.258;6.806;2024-02-21T09:10:57;15.40;;;6.53;;
4353;SDS011;11018;51.258;6.806;2024-02-21T09:13:22;18.90;;;6.50;;
4353;SDS011;11018;51.258;6.806;2024-02-21T09:15:48;22.33;;;7.10;;
4353;SDS011;11018;51.258;6.806;2024-02-21T09:18:15;21.17;;;6.60;;
4353;SDS011;11018;51.258;6.806;2024-02-21T09:20:41;21.52;;;6.93;;
4353;SDS011;11018;51.258;6.806;2024-02-21T09:23:07;16.10;;;5.90;;
4353;SDS011;11018;51.258;6.806;2024-02-21T09:25:33;17.10;;;6.22;;
4353;SDS011;11018;51.258;6.806;2024-02-21T09:27:59;17.90;;;6.20;;
4353;SDS011;11018;51.258;6.806;2024-02-21T09:30:25;19.02;;;7.70;;
4353;SDS011;11018;51.258;6.806;2024-02-21T09:32:51;18.83;;;7.30;;
4353;SDS011;11018;51.258;6.806;2024-02-21T09:35:17;19.17;;;7.82;;
4353;SDS011;11018;51.258;6.806;2024-02-21T09:37:43;21.42;;;7.70;;
4353;SDS011;11018;51.258;6.806;2024-02-21T09:40:09;20.07;;;7.80;;
4353;SDS011;11018;51.258;6.806;2024-02-21T09:42:38;24.50;;;9.30;;
4353;SDS011;11018;51.258;6.806;2024-02-21T09:45:07;22.30;;;8.50;;
4353;SDS011;11018;51.258;6.806;2024-02-21T09:47:43;16.03;;;7.77;;
4353;SDS011;11018;51.258;6.806;2024-02-21T09:50:29;17.63;;;7.90;;
4353;SDS011;11018;51.258;6.806;2024-02-21T09:52:57;17.73;;;6.13;;
4353;SDS011;11018;51.258;6.806;2024-02-21T09:55:24;12.98;;;5.40;;
4353;SDS011;11018;51.258;6.806;2024-02-21T09:57:52;14.13;;;5.57;;
4353;SDS011;11018;51.258;6.806;2024-02-21T10:00:19;14.32;;;5.90;;
4353;SDS011;11018;51.258;6.806;2024-02-21T10:02:47;17.25;;;6.40;;
4353;SDS011;11018;51.258;6.806;2024-02-21T10:05:14;15.13;;;6.05;;
4353;SDS011;11018;51.258;6.806;2024-02-21T10:07:40;19.13;;;6.20;;
4353;SDS011;11018;51.258;6.806;2024-02-21T10:10:05;14.00;;;5.40;;
4353;SDS011;11018;51.258;6.806;2024-02-21T10:12:32;16.10;;;5.30;;
4353;SDS011;11018;51.258;6.806;2024-02-21T10:15:01;16.20;;;5.50;;
4353;SDS011;11018;51.258;6.806;2024-02-21T10:17:34;16.70;;;5.55;;
4353;SDS011;11018;51.258;6.806;2024-02-21T10:20:09;16.48;;;5.85;;
4353;SDS011;11018;51.258;6.806;2024-02-21T10:22:35;10.77;;;5.03;;
4353;SDS011;11018;51.258;6.806;2024-02-21T10:25:13;13.35;;;5.03;;
4353;SDS011;11018;51.258;6.806;2024-02-21T10:27:39;10.13;;;4.53;;
4353;SDS011;11018;51.258;6.806;2024-02-21T10:30:06;13.05;;;4.78;;
4353;SDS011;11018;51.258;6.806;2024-02-21T10:32:37;9.98;;;4.60;;
4353;SDS011;11018;51.258;6.806;2024-02-21T10:35:26;15.38;;;4.88;;
4353;SDS011;11018;51.258;6.806;2024-02-21T10:37:56;11.77;;;4.63;;
4353;SDS011;11018;51.258;6.806;2024-02-21T10:40:23;11.40;;;4.70;;
4353;SDS011;11018;51.258;6.806;2024-02-21T10:42:50;18.88;;;5.38;;
4353;SDS011;11018;51.258;6.806;2024-02-21T10:45:21;12.77;;;5.00;;
4353;SDS011;11018;51.258;6.806;2024-02-21T10:47:51;12.63;;;4.63;;
4353;SDS011;11018;51.258;6.806;2024-02-21T10:50:21;11.63;;;4.70;;
4353;SDS011;11018;51.258;6.806;2024-02-21T10:52:58;8.93;;;3.92;;
4353;SDS011;11018;51.258;6.806;2024-02-21T10:55:51;10.65;;;4.00;;
4353;SDS011;11018;51.258;6.806;2024-02-21T10:58:27;10.02;;;4.32;;
4353;SDS011;11018;51.258;6.806;2024-02-21T11:00:55;11.43;;;4.70;;
4353;SDS011;11018;51.258;6.806;2024-02-21T11:03:21;10.67;;;4.90;;
4353;SDS011;11018;51.258;6.806;2024-02-21T11:05:47;16.23;;;5.00;;
4353;SDS011;11018;51.258;6.806;2024-02-21T11:08:13;11.15;;;5.10;;
4353;SDS011;11018;51.258;6.806;2024-02-21T11:10:39;10.80;;;5.35;;
4353;SDS011;11018;51.258;6.806;2024-02-21T11:15:34;15.95;;;4.95;;
4353;SDS011;11018;51.258;6.806;2024-02-21T11:18:00;12.55;;;4.50;;
4353;SDS011;11018;51.258;6.806;2024-02-21T11:20:32;15.32;;;5.00;;
4353;SDS011;11018;51.258;6.806;2024-02-21T11:23:01;14.45;;;5.20;;
4353;SDS011;11018;51.258;6.806;2024-02-21T11:25:28;9.10;;;4.93;;
4353;SDS011;11018;51.258;6.806;2024-02-21T11:27:59;12.88;;;6.22;;
4353;SDS011;11018;51.258;6.806;2024-02-21T11:30:35;15.30;;;5.50;;
4353;SDS011;11018;51.258;6.806;2024-02-21T11:33:02;15.00;;;5.57;;
4353;SDS011;11018;51.258;6.806;2024-02-21T11:35:31;16.77;;;5.65;;
4353;SDS011;11018;51.258;6.806;2024-02-21T11:38:07;15.30;;;5.60;;
4353;SDS011;11018;51.258;6.806;2024-02-21T11:40:39;16.42;;;5.45;;
4353;SDS011;11018;51.258;6.806;2024-02-21T11:43:06;18.17;;;5.60;;
4353;SDS011;11018;51.258;6.806;2024-02-21T11:45:32;18.15;;;5.53;;
4353;SDS011;11018;51.258;6.806;2024-02-21T11:47:58;20.58;;;6.20;;
4353;SDS011;11018;51.258;6.806;2024-02-21T11:50:25;11.60;;;4.80;;
4353;SDS011;11018;51.258;6.806;2024-02-21T11:52:54;15.63;;;5.75;;
4353;SDS011;11018;51.258;6.806;2024-02-21T11:55:20;18.75;;;8.57;;
4353;SDS011;11018;51.258;6.806;2024-02-21T11:57:47;10.83;;;5.00;;
4353;SDS011;11018;51.258;6.806;2024-02-21T12:00:16;12.85;;;5.07;;
4353;SDS011;11018;51.258;6.806;2024-02-21T12:02:45;16.13;;;5.30;;
4353;SDS011;11018;51.258;6.806;2024-02-21T12:05:11;15.43;;;5.28;;
4353;SDS011;11018;51.258;6.806;2024-02-21T12:07:37;15.07;;;5.50;;
4353;SDS011;11018;51.258;6.806;2024-02-21T12:10:12;15.02;;;4.90;;
4353;SDS011;11018;51.258;6.806;2024-02-21T12:12:39;14.43;;;5.05;;
4353;SDS011;11018;51.258;6.806;2024-02-21T12:15:05;15.57;;;4.85;;
4353;SDS011;11018;51.258;6.806;2024-02-21T12:17:33;17.13;;;5.00;;
4353;SDS011;11018;51.258;6.806;2024-02-21T12:20:05;13.13;;;4.55;;
4353;SDS011;11018;51.258;6.806;2024-02-21T12:22:33;19.00;;;4.68;;
4353;SDS011;11018;51.258;6.806;2024-02-21T12:25:03;12.77;;;5.00;;
4353;SDS011;11018;51.258;6.806;2024-02-21T12:27:42;15.65;;;4.55;;
4353;SDS011;11018;51.258;6.806;2024-02-21T12:30:08;15.93;;;4.82;;
4353;SDS011;11018;51.258;6.806;2024-02-21T12:32:35;10.07;;;3.85;;
4353;SDS011;11018;51.258;6.806;2024-02-21T12:35:01;15.98;;;4.75;;
4353;SDS011;11018;51.258;6.806;2024-02-21T12:37:27;13.85;;;4.10;;
4353;SDS011;11018;51.258;6.806;2024-02-21T12:39:53;9.90;;;3.80;;
4353;SDS011;11018;51.258;6.806;2024-02-21T12:42:19;11.77;;;4.53;;
4353;SDS011;11018;51.258;6.806;2024-02-21T12:44:45;8.73;;;3.78;;
4353;SDS011;11018;51.258;6.806;2024-02-21T12:47:10;8.57;;;3.40;;
4353;SDS011;11018;51.258;6.806;2024-02-21T12:49:36;13.45;;;3.92;;
4353;SDS011;11018;51.258;6.806;2024-02-21T12:52:02;16.08;;;4.60;;
4353;SDS011;11018;51.258;6.806;2024-02-21T12:54:28;12.25;;;4.45;;
4353;SDS011;11018;51.258;6.806;2024-02-21T12:56:55;11.55;;;4.22;;
4353;SDS011;11018;51.258;6.806;2024-02-21T12:59:20;9.90;;;4.00;;
4353;SDS011;11018;51.258;6.806;2024-02-21T13:01:46;7.68;;;3.40;;
4353;SDS011;11018;51.258;6.806;2024-02-21T13:04:12;11.23;;;4.37;;
4353;SDS011;11018;51.258;6.806;2024-02-21T13:06:37;13.20;;;4.20;;
4353;SDS011;11018;51.258;6.806;2024-02-21T13:09:03;13.80;;;4.45;;
4353;SDS011;11018;51.258;6.806;2024-02-21T13:11:32;9.75;;;3.60;;
4353;SDS011;11018;51.258;6.806;2024-02-21T13:13:59;11.43;;;4.00;;
4353;SDS011;11018;51.258;6.806;2024-02-21T13:16:24;10.50;;;3.90;;
4353;SDS011;11018;51.258;6.806;2024-02-21T13:18:51;16.23;;;4.70;;
4353;SDS011;11018;51.258;6.806;2024-02-21T13:21:16;15.83;;;4.00;;
4353;SDS011;11018;51.258;6.806;2024-02-21T13:23:42;11.07;;;4.17;;
4353;SDS011;11018;51.258;6.806;2024-02-21T13:26:09;10.75;;;4.55;;
4353;SDS011;11018;51.258;6.806;2024-02-21T13:28:35;12.60;;;4.10;;
4353;SDS011;11018;51.258;6.806;2024-02-21T13:31:00;12.38;;;3.80;;
4353;SDS011;11018;51.258;6.806;2024-02-21T13:33:26;15.30;;;4.57;;
4353;SDS011;11018;51.258;6.806;2024-02-21T13:35:53;8.77;;;4.05;;
4353;SDS011;11018;51.258;6.806;2024-02-21T13:38:19;11.57;;;4.53;;
4353;SDS011;11018;51.258;6.806;2024-02-21T13:40:44;12.10;;;4.33;;
4353;SDS011;11018;51.258;6.806;2024-02-21T13:43:10;13.95;;;4.00;;
4353;SDS011;11018;51.258;6.806;2024-02-21T13:45:36;12.77;;;4.50;;
4353;SDS011;11018;51.258;6.806;2024-02-21T13:48:01;14.07;;;4.20;;
4353;SDS011;11018;51.258;6.806;2024-02-21T13:50:30;12.98;;;5.00;;
4353;SDS011;11018;51.258;6.806;2024-02-21T13:52:56;18.65;;;4.47;;
4353;SDS011;11018;51.258;6.806;2024-02-21T13:55:22;13.80;;;4.10;;
4353;SDS011;11018;51.258;6.806;2024-02-21T13:57:50;11.82;;;4.30;;
4353;SDS011;11018;51.258;6.806;2024-02-21T14:00:16;12.80;;;4.10;;
4353;SDS011;11018;51.258;6.806;2024-02-21T14:02:43;12.77;;;3.80;;
4353;SDS011;11018;51.258;6.806;2024-02-21T14:05:09;12.27;;;4.40;;
4353;SDS011;11018;51.258;6.806;2024-02-21T14:07:35;10.13;;;3.50;;
4353;SDS011;11018;51.258;6.806;2024-02-21T14:10:00;11.53;;;4.30;;
4353;SDS011;11018;51.258;6.806;2024-02-21T14:12:26;15.40;;;4.70;;
4353;SDS011;11018;51.258;6.806;2024-02-21T14:14:51;10.60;;;4.60;;
4353;SDS011;11018;51.258;6.806;2024-02-21T14:17:17;12.90;;;4.40;;
4353;SDS011;11018;51.258;6.806;2024-02-21T14:19:43;12.23;;;4.30;;
4353;SDS011;11018;51.258;6.806;2024-02-21T14:22:09;14.80;;;4.70;;
4353;SDS011;11018;51.258;6.806;2024-02-21T14:24:36;11.57;;;4.20;;
4353;SDS011;11018;51.258;6.806;2024-02-21T14:27:02;12.73;;;4.30;;
4353;SDS011;11018;51.258;6.806;2024-02-21T14:29:28;11.82;;;4.20;;
4353;SDS011;11018;51.258;6.806;2024-02-21T14:31:54;12.60;;;4.30;;
4353;SDS011;11018;51.258;6.806;2024-02-21T14:34:19;20.50;;;5.00;;
4353;SDS011;11018;51.258;6.806;2024-02-21T14:36:45;13.20;;;4.00;;
4353;SDS011;11018;51.258;6.806;2024-02-21T14:39:11;10.67;;;4.13;;
4353;SDS011;11018;51.258;6.806;2024-02-21T14:41:36;11.20;;;4.10;;
4353;SDS011;11018;51.258;6.806;2024-02-21T14:44:02;13.30;;;4.60;;
4353;SDS011;11018;51.258;6.806;2024-02-21T14:46:28;10.60;;;4.10;;